createdAt,value
2023-01-05T00:02:16.270Z,1.65
2023-01-05T00:07:21.492Z,1.13
2023-01-05T00:12:41.531Z,1.45
2023-01-05T00:18:02.869Z,1.60
2023-01-05T00:23:06.511Z,1.17
2023-01-05T00:28:09.607Z,0.63
2023-01-05T00:33:15.373Z,0.80
2023-01-05T00:38:18.154Z,0.70
2023-01-05T00:43:20.967Z,0.70
2023-01-05T00:48:25.230Z,0.70
2023-01-05T00:53:27.927Z,0.60
2023-01-05T00:58:30.680Z,0.95
2023-01-05T01:03:34.876Z,0.85
2023-01-05T01:08:37.864Z,0.98
2023-01-05T01:13:40.567Z,1.10
2023-01-05T01:18:44.653Z,0.95
2023-01-05T01:23:47.386Z,1.20
2023-01-05T01:28:50.366Z,0.93
2023-01-05T01:33:54.928Z,1.33
2023-01-05T01:38:57.993Z,1.02
2023-01-05T01:44:00.879Z,1.20
2023-01-05T01:49:08.510Z,1.67
2023-01-05T01:54:13.374Z,1.33
2023-01-05T01:59:17.323Z,1.20
2023-01-05T02:04:21.886Z,1.15
2023-01-05T02:09:26.163Z,1.23
2023-01-05T02:14:35.548Z,1.23
2023-01-05T02:20:13.949Z,1.20
2023-01-05T02:25:42.492Z,1.60
2023-01-05T02:31:00.362Z,1.40
2023-01-05T02:36:15.432Z,1.00
2023-01-05T02:41:23.485Z,1.73
2023-01-05T02:46:27.850Z,1.63
2023-01-05T02:51:36.373Z,1.30
2023-01-05T02:56:45.027Z,1.25
2023-01-05T03:01:53.024Z,1.45
2023-01-05T03:06:57.806Z,1.48
2023-01-05T03:12:22.962Z,1.42
2023-01-05T03:17:30.539Z,1.52
2023-01-05T03:22:52.693Z,1.48
2023-01-05T03:28:14.848Z,1.20
2023-01-05T03:33:44.464Z,1.10
2023-01-05T03:38:49.303Z,1.50
2023-01-05T03:43:52.362Z,1.63
2023-01-05T03:48:57.446Z,1.13
2023-01-05T03:54:02.830Z,1.30
2023-01-05T03:59:08.080Z,1.20
2023-01-05T04:04:15.083Z,1.35
2023-01-05T04:09:17.995Z,1.52
2023-01-05T04:14:21.659Z,1.20
2023-01-05T04:19:26.031Z,1.20
2023-01-05T04:24:30.956Z,1.38
2023-01-05T04:29:36.244Z,1.60
2023-01-05T04:34:40.273Z,1.25
2023-01-05T04:39:43.956Z,1.23
2023-01-05T04:44:48.338Z,1.30
2023-01-05T04:49:52.522Z,1.50
2023-01-05T04:54:55.516Z,1.80
2023-01-05T05:00:00.136Z,1.20
2023-01-05T05:05:04.799Z,1.45
2023-01-05T05:10:10.908Z,1.25
2023-01-05T05:15:18.284Z,1.48
2023-01-05T05:20:26.204Z,1.30
2023-01-05T05:25:29.972Z,1.40
2023-01-05T05:30:32.887Z,1.20
2023-01-05T05:35:37.087Z,1.45
2023-01-05T05:40:39.855Z,1.52
2023-01-05T05:45:47.914Z,1.70
2023-01-05T05:50:54.754Z,1.38
2023-01-05T05:55:57.448Z,1.60
2023-01-05T06:01:00.359Z,1.45
2023-01-05T06:06:05.097Z,1.38
2023-01-05T06:11:08.071Z,1.50
2023-01-05T06:16:11.347Z,1.52
2023-01-05T06:21:15.567Z,1.02
2023-01-05T06:26:18.363Z,1.58
2023-01-05T06:31:21.162Z,1.40
2023-01-05T06:36:25.368Z,1.30
2023-01-05T06:41:28.167Z,1.38
2023-01-05T06:46:30.844Z,1.80
2023-01-05T06:51:34.905Z,1.33
2023-01-05T06:56:37.737Z,1.48
2023-01-05T07:01:40.542Z,1.75
2023-01-05T07:06:44.873Z,1.83
2023-01-05T07:11:47.605Z,1.70
2023-01-05T07:16:50.455Z,1.40
2023-01-05T07:21:56.888Z,1.63
2023-01-05T07:27:03.076Z,1.45
2023-01-05T07:32:10.724Z,1.90
2023-01-05T07:37:15.270Z,1.48
2023-01-05T07:42:17.983Z,1.83
2023-01-05T07:47:22.620Z,1.38
2023-01-05T07:52:26.921Z,1.38
2023-01-05T07:57:29.653Z,1.50
2023-01-05T08:02:36.080Z,1.70
2023-01-05T08:07:40.547Z,1.90
2023-01-05T08:12:57.273Z,2.22
2023-01-05T08:18:00.091Z,2.00
2023-01-05T08:23:04.202Z,1.90
2023-01-05T08:28:06.991Z,2.40
2023-01-05T08:33:09.894Z,2.03
2023-01-05T08:38:13.978Z,2.00
2023-01-05T08:43:16.725Z,1.95
2023-01-05T08:48:19.547Z,2.38
2023-01-05T08:53:23.677Z,1.73
2023-01-05T08:58:26.411Z,2.00
2023-01-05T09:03:29.149Z,1.90
2023-01-05T09:08:34.655Z,1.60
2023-01-05T09:13:37.517Z,1.58
2023-01-05T09:18:41.690Z,1.77
2023-01-05T09:23:46.077Z,1.63
2023-01-05T09:28:48.787Z,1.23
2023-01-05T09:33:51.705Z,1.05
2023-01-05T09:38:57.085Z,2.00
2023-01-05T09:44:01.782Z,1.42
2023-01-05T09:49:06.405Z,1.52
2023-01-05T09:54:16.391Z,1.35
2023-01-05T09:59:23.604Z,1.25
2023-01-05T10:04:30.804Z,2.25
2023-01-05T10:09:38.197Z,1.25
2023-01-05T10:14:43.215Z,1.38
2023-01-05T10:19:46.280Z,1.30
2023-01-05T10:24:55.318Z,1.27
2023-01-05T10:30:04.439Z,1.77
2023-01-05T10:35:41.886Z,1.77
2023-01-05T10:40:52.219Z,1.30
2023-01-05T10:46:28.733Z,1.40
2023-01-05T10:51:17.710Z,1.70
2023-01-05T10:56:28.609Z,1.33
2023-01-05T11:01:31.994Z,1.70
2023-01-05T11:06:36.444Z,1.65
2023-01-05T11:11:40.705Z,1.50
2023-01-05T11:16:48.966Z,1.63
2023-01-05T11:21:56.642Z,1.60
2023-01-05T11:27:05.662Z,1.52
2023-01-05T11:32:13.048Z,1.60
2023-01-05T11:37:24.617Z,1.30
2023-01-05T11:42:34.028Z,1.25
2023-01-05T11:47:43.761Z,1.25
2023-01-05T11:52:49.903Z,1.20
2023-01-05T11:58:00.009Z,1.38
2023-01-05T12:03:20.202Z,1.20
2023-01-05T12:08:27.577Z,1.67
2023-01-05T12:13:55.483Z,0.93
2023-01-05T12:19:19.669Z,1.30
2023-01-05T12:24:40.324Z,1.52
2023-01-05T12:35:53.748Z,1.17
2023-01-05T12:41:09.891Z,1.15
2023-01-05T12:46:23.324Z,1.77
2023-01-05T12:51:32.541Z,2.05
2023-01-05T12:56:39.042Z,1.38
2023-01-05T13:01:45.487Z,1.00
2023-01-05T13:06:53.075Z,1.08
2023-01-05T13:12:00.590Z,1.10
2023-01-05T13:17:05.974Z,1.02
2023-01-05T13:22:16.446Z,1.67
2023-01-05T13:27:19.227Z,1.50
2023-01-05T13:32:33.439Z,1.30
2023-01-05T13:37:52.780Z,1.38
2023-01-05T13:43:15.513Z,1.50
2023-01-05T13:48:44.097Z,1.17
2023-01-05T13:53:49.597Z,1.70
2023-01-05T13:58:54.002Z,1.42
2023-01-05T14:03:58.199Z,1.50
2023-01-05T14:09:05.452Z,1.20
2023-01-05T14:14:26.541Z,1.05
2023-01-05T14:19:52.026Z,1.02
2023-01-05T14:24:56.219Z,1.17
2023-01-05T14:30:04.021Z,1.13
2023-01-05T14:35:18.355Z,1.10
2023-01-05T14:40:36.510Z,1.52
2023-01-05T14:45:40.592Z,1.02
2023-01-05T14:50:43.882Z,1.50
2023-01-05T14:56:20.227Z,1.42
2023-01-05T15:01:27.065Z,1.15
2023-01-05T15:06:39.968Z,1.77
2023-01-05T15:12:02.467Z,0.88
2023-01-05T15:17:26.816Z,0.80
2023-01-05T15:22:39.751Z,0.68
2023-01-05T15:27:56.143Z,1.58
2023-01-05T15:33:06.053Z,0.82
2023-01-05T15:38:21.549Z,0.73
2023-01-05T15:43:25.847Z,0.57
2023-01-05T15:48:31.143Z,0.50
2023-01-05T15:53:38.054Z,0.93
2023-01-05T15:58:45.978Z,0.70
2023-01-05T16:03:49.748Z,0.70
2023-01-05T16:08:55.773Z,0.70
2023-01-05T16:14:02.193Z,0.70
2023-01-05T16:19:09.913Z,0.60
2023-01-05T16:24:18.032Z,0.63
2023-01-05T16:29:39.252Z,0.60
2023-01-05T16:34:42.068Z,0.70
2023-01-05T16:39:46.082Z,0.80
2023-01-05T16:44:57.531Z,0.82
2023-01-05T16:50:00.421Z,1.00
2023-01-05T16:55:27.599Z,0.90
2023-01-05T17:00:41.412Z,1.00
2023-01-05T17:05:44.131Z,1.15
2023-01-05T17:10:47.151Z,0.98
2023-01-05T17:15:53.183Z,1.13
2023-01-05T17:20:57.815Z,2.13
2023-01-05T17:26:03.712Z,1.27
2023-01-05T17:31:08.056Z,2.25
2023-01-05T17:36:11.552Z,1.50
2023-01-05T17:41:16.086Z,1.30
2023-01-05T17:46:22.954Z,1.92
2023-01-05T17:51:28.037Z,2.08
2023-01-05T18:01:39.797Z,2.50
2023-01-05T18:06:42.616Z,2.13
2023-01-05T18:11:45.404Z,3.25
2023-01-05T18:16:49.687Z,3.30
2023-01-05T18:21:52.628Z,3.05
2023-01-05T18:26:55.986Z,2.35
2023-01-05T18:32:00.298Z,2.00
2023-01-05T18:37:06.410Z,1.45
2023-01-05T18:42:13.308Z,1.40
2023-01-05T18:47:17.467Z,1.20
2023-01-05T18:52:20.275Z,1.50
2023-01-05T18:57:23.102Z,1.30
2023-01-05T19:02:27.520Z,1.05
2023-01-05T19:07:30.462Z,0.93
2023-01-05T19:12:33.219Z,0.73
2023-01-05T19:17:37.501Z,0.80
2023-01-05T19:22:41.641Z,0.90
2023-01-05T19:27:45.489Z,0.75
2023-01-05T19:32:49.663Z,1.00
2023-01-05T19:37:52.638Z,0.70
2023-01-05T19:42:55.605Z,0.75
2023-01-05T19:47:59.864Z,0.88
2023-01-05T19:53:02.645Z,0.70
2023-01-05T19:58:05.548Z,0.82
2023-01-05T20:03:09.872Z,0.75
2023-01-05T20:08:12.775Z,0.73
2023-01-05T20:13:15.601Z,1.83
2023-01-05T20:18:19.696Z,0.80
2023-01-05T20:23:22.398Z,0.80
2023-01-05T20:28:25.500Z,1.05
2023-01-05T20:33:29.879Z,0.70
2023-01-05T20:38:37.900Z,1.10
2023-01-05T20:43:43.528Z,0.80
2023-01-05T20:48:49.714Z,0.85
2023-01-05T20:53:53.763Z,0.77
2023-01-05T20:58:56.809Z,0.80
2023-01-05T21:04:00.938Z,0.70
2023-01-05T21:09:05.051Z,0.55
2023-01-05T21:14:08.831Z,0.70
2023-01-05T21:19:17.568Z,0.50
2023-01-05T21:24:20.688Z,0.77
2023-01-05T21:29:25.937Z,0.90
2023-01-05T21:34:30.382Z,1.25
2023-01-05T21:39:33.371Z,0.80
2023-01-05T21:44:36.440Z,0.85
2023-01-05T21:49:40.755Z,1.10
2023-01-05T21:55:03.249Z,1.02
2023-01-05T22:00:07.516Z,1.40
2023-01-05T22:05:11.745Z,1.58
2023-01-05T22:10:14.875Z,1.48
2023-01-05T22:15:18.288Z,1.40
2023-01-05T22:20:22.532Z,1.65
2023-01-05T22:25:25.230Z,1.60
2023-01-05T22:30:28.121Z,1.70
2023-01-05T22:35:32.364Z,1.80
2023-01-05T22:40:35.258Z,1.70
2023-01-05T22:45:38.015Z,1.83
2023-01-05T22:50:42.169Z,1.58
2023-01-05T22:55:45.300Z,1.70
2023-01-05T23:00:48.116Z,2.28
2023-01-05T23:05:54.049Z,1.70
2023-01-05T23:11:00.758Z,2.08
2023-01-05T23:16:05.211Z,1.75
2023-01-05T23:21:11.606Z,2.13
2023-01-05T23:26:16.125Z,2.40
2023-01-05T23:31:19.247Z,2.78
2023-01-05T23:36:24.554Z,3.30
2023-01-05T23:41:27.349Z,2.72
2023-01-05T23:46:30.104Z,2.80
2023-01-05T23:51:34.202Z,2.30
2023-01-05T23:56:37.108Z,1.98
